Time;durP1;ratioP1;P1;durP2;ratioP2;P2;SDS_P1;SDS_P2;PMS_P1;PMS_P2;Temp;Humidity;BMP_temperature;BMP_pressure;BME280_temperature;BME280_humidity;BME280_pressure;Samples;Min_cycle;Max_cycle;Signal;HPM_P1;HPM_P2
2023/10/04 00:03:22;;;;;;;6.40;2.60;;;;;;;19.06;71.88;99180.58;232653;214;141043;-59
2023/10/04 00:08:26;;;;;;;6.10;2.30;;;;;;;18.99;72.25;99190.89;232904;214;138243;-58
2023/10/04 00:13:33;;;;;;;4.50;2.00;;;;;;;18.97;72.24;99193.24;232689;214;150246;-57
2023/10/04 00:18:37;;;;;;;4.00;2.20;;;;;;;18.92;72.02;99182.79;232672;214;139207;-60
2023/10/04 00:23:41;;;;;;;4.00;2.20;;;;;;;18.82;71.88;99181.70;232743;214;137532;-59
2023/10/04 00:28:44;;;;;;;4.20;1.80;;;;;;;18.79;72.15;99207.19;232771;214;149351;-59
2023/10/04 00:33:51;;;;;;;4.40;2.00;;;;;;;18.77;72.54;99259.47;232821;214;139041;-59
2023/10/04 00:38:55;;;;;;;4.30;2.20;;;;;;;18.75;72.51;99280.89;232815;214;138045;-61
2023/10/04 00:44:01;;;;;;;3.10;1.80;;;;;;;18.67;71.78;99298.45;232934;214;148943;-61
2023/10/04 00:49:06;;;;;;;;;;;;;;;18.58;71.40;99300.40;232814;214;138844;-61
2023/10/04 00:54:10;;;;;;;3.50;1.60;;;;;;;18.47;71.75;99312.30;232761;214;134736;-60
2023/10/04 00:59:16;;;;;;;4.90;1.70;;;;;;;18.38;72.31;99322.86;232755;214;150131;-61
2023/10/04 01:04:20;;;;;;;3.70;1.90;;;;;;;18.25;72.70;99335.30;232849;215;139318;-60
2023/10/04 01:09:25;;;;;;;5.30;2.20;;;;;;;18.19;72.90;99347.50;232908;215;137617;-61
2023/10/04 01:14:37;;;;;;;4.10;2.10;;;;;;;18.11;73.07;99351.13;232859;214;148139;-62
2023/10/04 01:19:42;;;;;;;4.90;2.30;;;;;;;18.01;73.46;99365.31;232809;214;138751;-63
2023/10/04 01:24:46;;;;;;;5.60;2.50;;;;;;;17.94;73.41;99379.91;232718;214;137186;-62
2023/10/04 01:29:49;;;;;;;4.00;2.20;;;;;;;17.87;73.71;99397.73;232814;214;150126;-61
2023/10/04 01:34:52;;;;;;;3.90;2.20;;;;;;;17.82;73.86;99405.96;232965;215;139513;-61
2023/10/04 01:39:58;;;;;;;5.20;2.50;;;;;;;17.75;74.03;99418.30;233004;215;138144;-60
2023/10/04 01:45:02;;;;;;;;;;;;;;;17.73;74.59;99419.74;232872;214;153024;-61
2023/10/04 01:50:09;;;;;;;5.70;2.90;;;;;;;17.67;74.78;99421.34;232995;215;138764;-63
2023/10/04 01:55:16;;;;;;;5.90;2.30;;;;;;;17.63;75.08;99424.71;232943;215;137978;-61
2023/10/04 02:00:22;;;;;;;6.90;2.20;;;;;;;17.62;75.04;99436.67;232978;215;149412;-62
2023/10/04 02:05:37;;;;;;;5.20;2.10;;;;;;;17.62;74.99;99454.73;232998;215;137917;-62
2023/10/04 02:10:44;;;;;;;6.90;2.60;;;;;;;17.64;74.90;99454.80;232835;215;137363;-62
2023/10/04 02:15:51;;;;;;;4.70;2.40;;;;;;;17.61;74.55;99457.05;232834;215;150267;-61
2023/10/04 02:20:55;;;;;;;4.60;2.20;;;;;;;17.50;74.19;99461.18;232974;215;140994;-61
2023/10/04 02:25:59;;;;;;;4.30;2.30;;;;;;;17.35;73.01;99469.93;232979;215;136971;-60
2023/10/04 02:31:03;;;;;;;4.50;2.10;;;;;;;17.22;72.58;99474.75;232807;215;149814;-61
2023/10/04 02:36:07;;;;;;;3.70;2.10;;;;;;;17.16;72.21;99491.98;232993;215;139890;-62
2023/10/04 02:41:12;;;;;;;5.60;2.30;;;;;;;17.11;72.11;99507.11;233066;215;137700;-61
2023/10/04 02:46:20;;;;;;;4.40;2.00;;;;;;;17.06;72.44;99518.83;232898;215;149327;-62
2023/10/04 02:51:24;;;;;;;3.80;2.20;;;;;;;17.04;72.56;99532.56;232847;215;138500;-59
2023/10/04 02:56:29;;;;;;;5.50;2.30;;;;;;;17.03;72.32;99544.84;232991;215;138283;-62
2023/10/04 03:01:33;;;;;;;3.90;2.20;;;;;;;17.09;71.94;99557.59;232897;215;149401;-62
2023/10/04 03:06:40;;;;;;;6.40;2.00;;;;;;;17.11;71.37;99574.65;232870;215;139885;-62
2023/10/04 03:11:45;;;;;;;7.00;2.30;;;;;;;17.09;70.81;99575.96;232983;215;138229;-61
2023/10/04 03:16:49;;;;;;;35.90;26.30;;;;;;;17.11;70.85;99575.96;232709;214;150056;-63
2023/10/04 03:21:54;;;;;;;5.70;2.50;;;;;;;17.08;70.50;99583.91;232706;214;139364;-62
2023/10/04 03:26:58;;;;;;;21.90;19.60;;;;;;;17.00;70.42;99586.89;232756;214;137131;-64
2023/10/04 03:32:04;;;;;;;2.60;1.80;;;;;;;16.92;70.86;99595.20;232829;214;151025;-62
2023/10/04 03:37:13;;;;;;;5.00;2.00;;;;;;;16.93;70.56;99602.84;232802;214;138204;-64
2023/10/04 03:42:17;;;;;;;3.10;1.90;;;;;;;16.86;69.82;99606.10;232830;214;137023;-60
2023/10/04 03:47:22;;;;;;;4.00;2.10;;;;;;;16.73;69.75;99598.81;232885;214;150714;-61
2023/10/04 03:52:28;;;;;;;4.70;2.00;;;;;;;16.66;69.67;99603.30;232824;214;139867;-61
2023/10/04 03:57:33;;;;;;;23.90;20.30;;;;;;;16.59;69.60;99613.20;232718;214;136960;-60
2023/10/04 04:02:39;;;;;;;6.00;3.20;;;;;;;16.51;69.89;99629.42;232826;214;148581;-62
2023/10/04 04:07:44;;;;;;;5.10;2.30;;;;;;;16.48;69.61;99641.83;232880;214;137728;-64
2023/10/04 04:12:49;;;;;;;4.50;2.20;;;;;;;16.43;69.64;99645.80;232796;214;140984;-63
2023/10/04 04:17:55;;;;;;;5.30;2.10;;;;;;;16.34;69.85;99661.45;232965;214;148045;-66
2023/10/04 04:22:59;;;;;;;5.60;2.10;;;;;;;16.28;70.28;99671.76;232948;214;138420;-61
2023/10/04 04:28:04;;;;;;;7.10;2.20;;;;;;;16.27;70.74;99675.25;232883;215;138049;-66
2023/10/04 04:33:10;;;;;;;4.80;2.20;;;;;;;16.25;71.22;99682.37;232781;215;149326;-62
2023/10/04 04:38:17;;;;;;;3.60;2.00;;;;;;;16.26;71.19;99686.77;232977;215;140271;-61
2023/10/04 04:48:36;;;;;;;5.00;2.30;;;;;;;16.37;70.95;99692.41;232820;215;151458;-59
2023/10/04 04:53:50;;;;;;;4.40;2.00;;;;;;;16.39;70.95;99701.95;232765;214;138865;-60
2023/10/04 04:58:56;;;;;;;3.70;1.90;;;;;;;16.34;70.87;99716.45;232706;214;136929;-60
2023/10/04 05:04:07;;;;;;;3.60;2.00;;;;;;;16.31;70.68;99722.61;233061;215;148493;-60
2023/10/04 05:09:11;;;;;;;4.00;1.90;;;;;;;16.24;70.30;99744.12;233136;215;138662;-60
2023/10/04 05:14:14;;;;;;;5.00;1.40;;;;;;;16.20;69.53;99747.45;233100;214;137695;-59
2023/10/04 05:19:18;;;;;;;9.40;5.70;;;;;;;16.07;67.42;99753.71;233109;215;149326;-60
2023/10/04 05:24:22;;;;;;;5.00;1.50;;;;;;;15.99;65.93;99758.46;232909;215;137979;-58
2023/10/04 05:29:27;;;;;;;4.00;1.90;;;;;;;15.91;65.95;99764.58;232974;215;136937;-59
2023/10/04 05:34:31;;;;;;;7.50;2.00;;;;;;;15.84;66.01;99772.40;233055;215;150536;-59
2023/10/04 05:39:35;;;;;;;4.60;1.80;;;;;;;15.77;66.47;99781.47;233019;215;140104;-59
2023/10/04 05:44:38;;;;;;;9.00;1.80;;;;;;;15.74;67.11;99789.95;232878;214;137343;-59
2023/10/04 05:49:42;;;;;;;8.70;2.20;;;;;;;15.72;67.76;99805.14;232732;214;150542;-60
2023/10/04 05:54:47;;;;;;;7.70;2.00;;;;;;;15.73;68.48;99809.92;232905;215;139726;-60
2023/10/04 05:59:52;;;;;;;3.30;1.60;;;;;;;15.68;68.41;99817.96;232901;215;137964;-61
2023/10/04 06:04:56;;;;;;;5.30;1.70;;;;;;;15.67;68.17;99829.84;232932;215;148645;-60
2023/10/04 06:10:01;;;;;;;6.90;2.10;;;;;;;15.70;67.96;99835.34;232881;214;140155;-61
2023/10/04 06:15:10;;;;;;;94.20;72.10;;;;;;;15.71;67.70;99848.33;233000;215;136953;-61
2023/10/04 06:20:28;;;;;;;9.00;3.30;;;;;;;15.77;67.32;99861.88;233028;215;150002;-63
2023/10/04 06:25:34;;;;;;;9.60;2.40;;;;;;;15.78;67.04;99878.09;232859;214;139705;-63
2023/10/04 06:30:39;;;;;;;6.50;2.20;;;;;;;15.80;66.72;99895.23;232917;214;138267;-63
2023/10/04 06:35:43;;;;;;;6.10;1.80;;;;;;;15.84;66.49;99885.49;233013;214;149887;-59
2023/10/04 06:40:47;;;;;;;50.00;35.80;;;;;;;15.81;65.93;99881.77;232855;214;138902;-60
2023/10/04 06:45:51;;;;;;;8.40;2.80;;;;;;;15.81;65.70;99887.32;232869;214;137470;-59
2023/10/04 06:50:55;;;;;;;6.50;2.20;;;;;;;15.77;65.57;99891.16;232989;214;150190;-60
2023/10/04 06:55:58;;;;;;;6.90;2.00;;;;;;;15.80;65.43;99907.05;233014;215;138449;-61
2023/10/04 07:01:04;;;;;;;14.40;3.30;;;;;;;15.85;65.32;99913.69;232827;214;138099;-61
2023/10/04 07:06:08;;;;;;;4.50;1.90;;;;;;;15.93;64.93;99923.91;232949;214;150686;-62
2023/10/04 07:11:12;;;;;;;9.20;2.00;;;;;;;16.00;64.91;99924.66;232942;214;139594;-63
2023/10/04 07:16:15;;;;;;;5.10;1.90;;;;;;;16.03;64.71;99929.98;232851;214;137666;-62
2023/10/04 07:21:20;;;;;;;7.80;1.80;;;;;;;16.00;63.35;99940.58;232987;214;151074;-63
2023/10/04 07:26:24;;;;;;;3.70;1.60;;;;;;;15.95;62.91;99942.91;232907;214;138329;-61
2023/10/04 07:31:28;;;;;;;4.60;1.80;;;;;;;15.88;62.30;99950.92;232935;215;138427;-61
2023/10/04 07:36:34;;;;;;;5.50;1.70;;;;;;;15.77;61.74;99949.33;232918;215;148598;-64
2023/10/04 07:41:38;;;;;;;11.50;2.00;;;;;;;15.73;61.96;99949.79;232799;214;137603;-60
2023/10/04 07:46:42;;;;;;;7.60;2.30;;;;;;;15.76;62.19;99944.95;232710;214;137040;-60
2023/10/04 07:51:46;;;;;;;5.50;2.10;;;;;;;15.75;61.43;99946.83;232769;214;148233;-58
2023/10/04 07:56:51;;;;;;;5.90;1.90;;;;;;;15.74;61.43;99944.34;232758;214;138402;-60
2023/10/04 08:01:56;;;;;;;4.70;1.90;;;;;;;15.78;61.20;99948.19;232864;215;137862;-62
2023/10/04 08:07:00;;;;;;;5.20;1.90;;;;;;;15.84;60.95;99937.77;232804;214;149056;-62
2023/10/04 08:12:07;;;;;;;5.30;1.90;;;;;;;15.91;60.43;99932.48;232787;214;139559;-64
2023/10/04 08:17:12;;;;;;;4.70;1.70;;;;;;;15.98;60.61;99928.40;232723;214;137205;-62
2023/10/04 08:22:16;;;;;;;6.60;1.80;;;;;;;16.03;60.61;99925.33;232805;214;150960;-62
2023/10/04 08:27:20;;;;;;;8.10;1.90;;;;;;;16.11;60.73;99930.11;232871;214;139878;-64
2023/10/04 08:32:27;;;;;;;5.50;1.70;;;;;;;16.20;60.62;99930.91;232741;214;137735;-63
2023/10/04 08:37:31;;;;;;;8.20;2.00;;;;;;;16.24;60.46;99941.59;232886;215;148094;-62
2023/10/04 08:42:35;;;;;;;5.60;2.00;;;;;;;16.27;60.82;99941.15;232872;215;140162;-62
2023/10/04 08:47:40;;;;;;;7.50;1.90;;;;;;;16.32;60.49;99934.23;232779;214;138406;-62
2023/10/04 08:52:46;;;;;;;8.30;1.90;;;;;;;16.43;60.71;99930.20;232706;214;149394;-59
2023/10/04 08:57:50;;;;;;;6.90;2.10;;;;;;;16.58;60.10;99937.35;232841;214;138945;-60
2023/10/04 09:02:57;;;;;;;4.20;1.90;;;;;;;16.66;59.81;99934.81;232784;214;137553;-58
2023/10/04 09:08:04;;;;;;;8.20;2.10;;;;;;;16.75;59.87;99933.80;232801;214;151398;-59
2023/10/04 09:13:09;;;;;;;51.60;33.10;;;;;;;16.93;59.60;99935.52;232817;214;137886;-60
2023/10/04 09:18:24;;;;;;;4.80;2.20;;;;;;;17.00;58.72;99938.75;233035;215;138299;-60
2023/10/04 09:23:29;;;;;;;3.90;1.60;;;;;;;17.05;58.20;99936.42;232826;214;149489;-61
2023/10/04 09:28:40;;;;;;;10.40;2.30;;;;;;;17.08;57.37;99936.24;232711;214;139336;-60
2023/10/04 09:33:45;;;;;;;6.80;2.10;;;;;;;17.12;57.86;99939.69;232939;215;138245;-61
2023/10/04 09:39:13;;;;;;;3.50;1.70;;;;;;;17.23;57.43;99934.39;232901;214;150038;-61
2023/10/04 09:44:26;;;;;;;6.70;2.80;;;;;;;17.37;57.15;99934.20;232820;214;139586;-59
2023/10/04 09:49:33;;;;;;;4.30;1.90;;;;;;;17.26;54.57;99929.32;232707;214;137836;-59
2023/10/04 09:54:37;;;;;;;4.10;1.80;;;;;;;17.21;55.24;99922.52;232766;214;149166;-62
2023/10/04 09:59:43;;;;;;;4.80;1.80;;;;;;;17.30;55.82;99924.13;232739;214;138100;-60
2023/10/04 10:04:49;;;;;;;4.20;1.90;;;;;;;17.47;55.54;99919.46;232790;214;137202;-60
2023/10/04 10:10:11;;;;;;;7.10;1.70;;;;;;;17.71;54.83;99904.01;232763;214;230907;-59
2023/10/04 10:15:19;;;;;;;;;;;;;;;17.92;54.14;99903.41;232757;214;140073;-60
2023/10/04 10:20:24;;;;;;;50.10;31.70;;;;;;;18.11;53.82;99889.71;232759;214;134775;-60
2023/10/04 10:25:36;;;;;;;4.70;2.40;;;;;;;18.37;53.69;99887.60;232865;214;148416;-61
2023/10/04 10:30:43;;;;;;;5.60;1.60;;;;;;;18.55;51.80;99891.19;232892;214;138034;-61
2023/10/04 10:35:57;;;;;;;5.30;1.90;;;;;;;18.66;51.19;99887.60;232993;214;137837;-61
2023/10/04 10:41:01;;;;;;;5.30;1.70;;;;;;;18.76;49.40;99883.89;232937;215;152527;-59
2023/10/04 10:46:28;;;;;;;3.60;1.60;;;;;;;18.88;49.31;99878.30;232961;215;139602;-62
2023/10/04 10:51:45;;;;;;;6.30;1.50;;;;;;;18.99;49.13;99876.40;232932;214;137957;-61
2023/10/04 10:56:49;;;;;;;4.00;1.40;;;;;;;18.93;48.04;99874.23;232780;215;149373;-58
2023/10/04 11:01:53;;;;;;;4.30;1.90;;;;;;;18.83;47.81;99881.54;232802;215;139540;-59
2023/10/04 11:06:57;;;;;;;5.00;1.70;;;;;;;18.76;47.76;99888.03;232806;215;136979;-60
2023/10/04 11:12:01;;;;;;;3.50;1.30;;;;;;;18.69;47.85;99887.30;232816;214;152068;-55
2023/10/04 11:17:05;;;;;;;5.70;1.70;;;;;;;18.61;47.26;99891.54;232705;215;137671;-59
2023/10/04 11:22:11;;;;;;;3.90;1.80;;;;;;;18.45;47.79;99886.25;232654;214;137330;-60
2023/10/04 11:27:21;;;;;;;5.60;1.50;;;;;;;18.32;48.48;99880.65;232957;215;149319;-59
2023/10/04 11:32:28;;;;;;;4.30;1.70;;;;;;;18.25;48.45;99875.10;232928;215;138706;-59
2023/10/04 11:37:33;;;;;;;7.00;1.50;;;;;;;18.33;48.95;99874.98;232677;214;136747;-60
2023/10/04 11:42:41;;;;;;;8.30;2.20;;;;;;;18.46;49.15;99873.97;232851;214;149381;-60
2023/10/04 11:47:59;;;;;;;5.60;1.90;;;;;;;18.93;48.47;99867.44;232658;214;139955;-60
2023/10/04 11:53:03;;;;;;;4.40;1.80;;;;;;;19.24;47.57;99866.25;232831;214;136907;-64
2023/10/04 11:58:10;;;;;;;4.70;1.70;;;;;;;19.26;46.36;99870.42;232709;214;150442;-60
2023/10/04 12:03:14;;;;;;;5.20;1.30;;;;;;;19.13;45.42;99873.86;232661;214;139806;-60
2023/10/04 12:08:19;;;;;;;5.30;1.80;;;;;;;19.02;44.99;99876.95;232756;214;137973;-60
2023/10/04 12:13:23;;;;;;;6.40;1.90;;;;;;;19.03;45.26;99875.95;232822;214;148994;-61
2023/10/04 12:18:30;;;;;;;6.50;1.70;;;;;;;19.09;45.54;99872.30;232837;214;137699;-58
2023/10/04 12:23:33;;;;;;;4.50;1.30;;;;;;;19.13;44.22;99871.61;232716;214;137878;-58
2023/10/04 12:28:38;;;;;;;7.40;1.40;;;;;;;19.11;44.20;99870.18;232713;214;150697;-59
2023/10/04 12:33:42;;;;;;;4.60;1.50;;;;;;;19.09;44.34;99864.61;232752;214;139562;-59
2023/10/04 12:38:47;;;;;;;3.80;1.50;;;;;;;19.06;44.29;99862.14;232960;215;137375;-59
2023/10/04 12:43:51;;;;;;;3.50;1.50;;;;;;;19.06;44.17;99856.79;232919;214;149401;-58
2023/10/04 12:48:55;;;;;;;2.90;1.30;;;;;;;19.07;44.82;99849.52;232756;214;139947;-58
2023/10/04 12:54:00;;;;;;;2.70;1.60;;;;;;;19.13;45.39;99850.27;232766;214;137116;-59
2023/10/04 12:59:06;;;;;;;5.20;2.00;;;;;;;19.24;45.44;99844.45;232853;214;149356;-58
2023/10/04 13:04:11;;;;;;;3.60;1.60;;;;;;;19.34;45.12;99841.13;232803;214;138970;-57
2023/10/04 13:09:19;;;;;;;;;;;;;;;19.38;44.03;99845.25;232959;214;138568;-57
2023/10/04 13:14:24;;;;;;;4.70;1.60;;;;;;;19.61;43.99;99844.39;232978;214;149837;-60
2023/10/04 13:19:28;;;;;;;19.50;15.10;;;;;;;19.80;43.91;99847.58;232802;214;141454;-60
2023/10/04 13:24:34;;;;;;;5.70;2.60;;;;;;;19.88;44.78;99846.17;232983;214;138545;-63
2023/10/04 13:29:38;;;;;;;4.70;1.70;;;;;;;19.82;45.01;99852.80;232670;214;150656;-64
2023/10/04 13:34:43;;;;;;;4.30;2.10;;;;;;;19.70;44.49;99849.03;232978;215;137715;-64
2023/10/04 13:39:47;;;;;;;15.60;7.90;;;;;;;19.59;44.34;99847.00;232820;214;137254;-63
2023/10/04 13:44:51;;;;;;;48.30;25.90;;;;;;;19.52;44.76;99851.73;232737;214;150165;-64
2023/10/04 13:49:55;;;;;;;5.60;3.00;;;;;;;19.52;44.86;99851.08;232886;214;138780;-63
2023/10/04 13:54:59;;;;;;;7.80;2.10;;;;;;;19.45;43.66;99847.67;233060;214;137700;-65
2023/10/04 14:00:22;;;;;;;10.20;2.60;;;;;;;19.37;43.11;99842.48;232983;215;148873;-62
2023/10/04 14:05:26;;;;;;;7.20;2.10;;;;;;;19.29;42.98;99829.86;232758;214;139438;-63
2023/10/04 14:10:32;;;;;;;2.70;1.50;;;;;;;19.22;42.80;99824.48;232847;214;140164;-63
2023/10/04 14:15:39;;;;;;;4.70;1.90;;;;;;;19.23;43.05;99819.74;232789;214;149506;-63
2023/10/04 14:20:44;;;;;;;4.50;1.50;;;;;;;19.28;43.48;99820.70;232739;214;138639;-63
2023/10/04 14:25:49;;;;;;;5.40;1.70;;;;;;;19.31;42.90;99823.20;232755;214;137453;-62
2023/10/04 14:30:53;;;;;;;4.90;1.70;;;;;;;19.28;42.26;99817.33;232755;214;150138;-63
2023/10/04 14:35:59;;;;;;;4.90;1.80;;;;;;;19.27;42.55;99819.34;232713;214;138455;-62
2023/10/04 14:41:04;;;;;;;6.40;1.50;;;;;;;19.23;42.80;99825.28;232764;214;137217;-64
2023/10/04 14:46:08;;;;;;;3.90;1.80;;;;;;;19.15;42.64;99829.02;232789;214;149134;-62
2023/10/04 14:51:13;;;;;;;73.40;47.40;;;;;;;19.07;43.12;99832.61;232609;214;139767;-61
2023/10/04 14:56:18;;;;;;;5.00;2.50;;;;;;;19.03;42.81;99835.23;232788;214;138137;-65
2023/10/04 15:01:22;;;;;;;3.30;1.60;;;;;;;18.90;41.94;99840.69;232725;214;149840;-66
2023/10/04 15:06:29;;;;;;;2.40;1.40;;;;;;;18.80;42.25;99840.45;232911;214;141687;-64
2023/10/04 15:11:34;;;;;;;8.60;1.90;;;;;;;18.74;42.57;99846.36;232758;214;139376;-64
2023/10/04 15:16:38;;;;;;;4.20;1.90;;;;;;;18.73;43.14;99849.53;232695;214;149729;-62
2023/10/04 15:21:43;;;;;;;6.30;2.60;;;;;;;18.68;43.49;99864.08;232713;214;138933;-64
2023/10/04 15:26:49;;;;;;;6.90;2.30;;;;;;;18.58;43.83;99871.14;232713;214;137032;-64
2023/10/04 15:31:57;;;;;;;5.10;2.10;;;;;;;18.50;44.73;99875.29;232707;214;149344;-62
2023/10/04 15:37:01;;;;;;;7.40;3.30;;;;;;;18.56;46.66;99888.19;232816;215;141137;-57
2023/10/04 15:42:06;;;;;;;6.40;3.50;;;;;;;18.66;47.81;99892.80;232846;214;137829;-62
2023/10/04 15:47:10;;;;;;;11.80;4.00;;;;;;;18.79;48.96;99889.20;232986;214;151408;-61
2023/10/04 15:52:14;;;;;;;6.20;2.90;;;;;;;18.88;48.85;99889.02;232731;214;139031;-63
2023/10/04 15:57:18;;;;;;;6.80;2.80;;;;;;;18.90;48.38;99891.05;232752;214;137725;-63
2023/10/04 16:02:22;;;;;;;6.30;2.60;;;;;;;18.91;48.17;99898.48;232844;215;149843;-63
2023/10/04 16:07:27;;;;;;;6.10;2.60;;;;;;;18.89;48.20;99908.00;232738;215;140930;-64
2023/10/04 16:12:33;;;;;;;16.40;8.30;;;;;;;18.86;47.57;99907.35;232909;215;137137;-65
2023/10/04 16:17:38;;;;;;;7.40;2.90;;;;;;;18.58;46.64;99909.66;232806;214;149456;-62
2023/10/04 16:22:53;;;;;;;5.20;2.70;;;;;;;18.28;46.86;99910.59;232679;214;138657;-64
2023/10/04 16:27:58;;;;;;;9.40;3.30;;;;;;;18.05;47.28;99912.24;232864;214;136910;-66
2023/10/04 16:33:02;;;;;;;6.60;2.50;;;;;;;17.86;47.78;99919.88;232865;214;151769;-65
2023/10/04 16:38:06;;;;;;;22.00;4.10;;;;;;;17.71;48.20;99925.48;232775;214;140080;-63
2023/10/04 16:43:12;;;;;;;7.40;2.60;;;;;;;17.59;48.71;99931.10;232750;214;138262;-65
2023/10/04 16:48:16;;;;;;;8.60;2.80;;;;;;;17.45;49.01;99935.95;232743;214;149384;-63
2023/10/04 16:53:20;;;;;;;11.50;2.50;;;;;;;17.35;49.52;99933.80;232713;214;140766;-63
2023/10/04 16:58:26;;;;;;;10.80;3.00;;;;;;;17.25;49.83;99931.71;232743;214;138200;-63
2023/10/04 17:03:30;;;;;;;8.10;3.10;;;;;;;17.20;50.20;99934.78;232780;214;150037;-66
2023/10/04 17:08:35;;;;;;;5.00;2.90;;;;;;;17.12;50.50;99944.00;232871;214;139550;-62
2023/10/04 17:13:39;;;;;;;9.70;2.90;;;;;;;17.00;50.84;99951.16;232894;214;139079;-63
2023/10/04 17:18:45;;;;;;;8.10;3.20;;;;;;;16.91;51.06;99952.54;232970;214;148484;-64
2023/10/04 17:23:50;;;;;;;6.70;3.50;;;;;;;16.83;51.12;99950.80;232695;214;138668;-63
2023/10/04 17:28:54;;;;;;;8.00;3.10;;;;;;;16.75;51.17;99948.13;232819;214;137136;-62
2023/10/04 17:33:58;;;;;;;8.80;2.90;;;;;;;16.68;51.45;99949.01;232931;214;149326;-64
2023/10/04 17:39:05;;;;;;;7.30;3.00;;;;;;;16.63;51.84;99953.70;232906;214;137999;-63
2023/10/04 17:44:09;;;;;;;6.00;2.80;;;;;;;16.57;51.93;99955.30;232835;214;138200;-62
2023/10/04 17:49:13;;;;;;;9.60;3.20;;;;;;;16.52;52.13;99960.54;232763;214;150953;-62
2023/10/04 17:54:18;;;;;;;9.70;3.60;;;;;;;16.45;52.36;99962.10;232954;214;139819;-65
2023/10/04 17:59:23;;;;;;;;;;;;;;;16.41;52.98;99962.80;232838;214;138099;-67
2023/10/04 18:04:27;;;;;;;11.40;4.70;;;;;;;16.40;54.20;99968.02;232806;214;148028;-68
2023/10/04 18:09:32;;;;;;;10.10;4.10;;;;;;;16.61;55.08;99970.94;232747;214;139652;-66
2023/10/04 18:14:35;;;;;;;10.40;4.30;;;;;;;16.65;56.10;99969.65;232891;214;138112;-66
2023/10/04 18:19:39;;;;;;;9.00;3.60;;;;;;;17.00;56.25;99970.48;232921;214;150258;-67
2023/10/04 18:24:44;;;;;;;9.70;3.50;;;;;;;17.13;54.39;99970.95;232804;214;139228;-66
2023/10/04 18:29:48;;;;;;;11.20;4.60;;;;;;;17.16;55.07;99972.00;232806;214;137677;-61
2023/10/04 18:34:52;;;;;;;12.50;4.50;;;;;;;17.36;54.93;99977.35;232667;214;149521;-64
2023/10/04 18:39:56;;;;;;;10.90;4.20;;;;;;;17.41;55.10;99986.30;232678;214;140794;-65
2023/10/04 18:45:04;;;;;;;6.80;3.70;;;;;;;17.50;55.02;99985.39;232870;214;138291;-60
2023/10/04 18:50:11;;;;;;;7.20;3.60;;;;;;;17.50;54.72;99991.54;232715;214;148995;-64
2023/10/04 18:55:16;;;;;;;10.50;4.10;;;;;;;17.41;54.20;99993.84;232736;214;138790;-61
2023/10/04 19:00:20;;;;;;;8.30;4.10;;;;;;;17.07;53.24;99996.90;232850;215;137301;-62
2023/10/04 19:05:24;;;;;;;12.70;4.20;;;;;;;16.74;53.36;99995.85;232719;215;149311;-63
2023/10/04 19:10:28;;;;;;;11.60;4.30;;;;;;;16.48;53.87;99996.52;232788;215;139893;-62
2023/10/04 19:15:33;;;;;;;7.90;4.40;;;;;;;16.28;54.74;99998.37;232850;215;137548;-64
2023/10/04 19:20:37;;;;;;;12.70;4.70;;;;;;;16.22;56.01;100007.05;232737;215;149118;-63
2023/10/04 19:25:41;;;;;;;13.30;5.00;;;;;;;16.10;55.19;100008.29;232846;215;138673;-68
2023/10/04 19:30:45;;;;;;;33.20;21.00;;;;;;;15.94;55.73;100012.77;232796;214;137855;-64
2023/10/04 19:35:49;;;;;;;12.60;5.50;;;;;;;15.79;56.07;100010.41;232798;214;151326;-66
2023/10/04 19:40:53;;;;;;;10.60;4.70;;;;;;;15.64;56.32;100009.78;232862;214;140831;-65
2023/10/04 19:45:57;;;;;;;18.80;5.30;;;;;;;15.53;56.80;100009.98;232938;214;138036;-64
2023/10/04 19:51:02;;;;;;;13.70;4.50;;;;;;;15.42;57.08;100007.13;232867;214;149499;-60
2023/10/04 19:56:06;;;;;;;12.60;4.60;;;;;;;15.33;57.33;100000.56;232685;214;140274;-64
2023/10/04 20:01:16;;;;;;;13.60;5.10;;;;;;;15.23;57.85;99999.27;232739;214;138354;-61
2023/10/04 20:06:22;;;;;;;12.40;5.30;;;;;;;15.14;58.25;100002.55;232643;214;149427;-62
2023/10/04 20:11:29;;;;;;;28.70;20.40;;;;;;;15.07;58.79;100003.70;232775;214;138767;-63
2023/10/04 20:16:34;;;;;;;8.40;5.10;;;;;;;15.09;58.94;100003.77;232739;214;138367;-62
2023/10/04 20:21:38;;;;;;;10.10;4.30;;;;;;;14.99;58.72;100000.50;232764;214;151286;-60
2023/10/04 20:26:42;;;;;;;12.20;4.90;;;;;;;14.88;58.91;100007.80;232684;214;140770;-63
2023/10/04 20:31:46;;;;;;;11.60;4.80;;;;;;;14.79;59.26;100009.28;232764;214;137460;-62
2023/10/04 20:36:51;;;;;;;10.60;4.90;;;;;;;14.74;59.52;100013.19;232751;214;150816;-63
2023/10/04 20:41:56;;;;;;;12.30;5.90;;;;;;;14.64;59.85;100010.73;232890;214;141337;-62
2023/10/04 20:47:02;;;;;;;11.10;5.90;;;;;;;14.56;60.09;100013.77;232805;214;137627;-62
2023/10/04 20:52:07;;;;;;;13.10;6.10;;;;;;;14.48;60.45;100004.78;232760;214;148820;-61
2023/10/04 20:57:11;;;;;;;17.20;7.50;;;;;;;14.40;60.73;100005.83;232729;214;138784;-61
2023/10/04 21:02:16;;;;;;;13.70;7.20;;;;;;;14.31;60.90;100006.73;232794;214;138293;-60
2023/10/04 21:07:21;;;;;;;11.10;6.70;;;;;;;14.22;61.18;100006.59;232919;214;149497;-61
2023/10/04 21:12:25;;;;;;;13.60;6.70;;;;;;;14.17;61.41;100004.00;232684;214;138902;-61
2023/10/04 21:17:29;;;;;;;15.60;6.80;;;;;;;14.10;61.56;100000.55;232781;214;137245;-60
2023/10/04 21:22:35;;;;;;;14.60;7.60;;;;;;;14.07;61.75;100002.14;232828;214;150544;-60
2023/10/04 21:27:39;;;;;;;15.80;6.70;;;;;;;14.04;61.80;99998.40;232766;214;139332;-60
2023/10/04 21:32:54;;;;;;;15.70;7.10;;;;;;;14.01;61.95;99997.53;232682;214;137889;-60
2023/10/04 21:37:59;;;;;;;18.10;8.00;;;;;;;13.93;62.08;99998.84;232627;214;150168;-60
2023/10/04 21:43:07;;;;;;;13.70;7.50;;;;;;;13.91;62.28;99995.05;233114;214;138756;-60
2023/10/04 21:48:17;;;;;;;15.50;7.60;;;;;;;13.85;62.44;99990.97;233079;214;137037;-60
2023/10/04 21:53:21;;;;;;;13.60;7.40;;;;;;;13.86;62.42;99991.80;232982;214;148518;-60
2023/10/04 21:58:28;;;;;;;12.70;7.30;;;;;;;13.82;62.50;99986.35;232931;214;138959;-62
2023/10/04 22:03:35;;;;;;;13.90;7.10;;;;;;;13.79;62.80;99982.64;232882;214;137014;-60
2023/10/04 22:08:40;;;;;;;15.60;7.60;;;;;;;13.76;62.86;99987.28;232867;214;149793;-62
2023/10/04 22:13:44;;;;;;;15.50;7.00;;;;;;;13.75;62.85;99983.73;232766;214;139593;-62
2023/10/04 22:18:48;;;;;;;12.70;6.80;;;;;;;13.73;62.92;99985.08;232653;214;137187;-59
2023/10/04 22:23:54;;;;;;;13.40;6.80;;;;;;;13.70;63.06;99980.44;232710;214;148039;-62
2023/10/04 22:28:57;;;;;;;12.40;7.30;;;;;;;13.68;63.11;99979.54;232687;214;140560;-61
2023/10/04 22:34:03;;;;;;;12.00;6.80;;;;;;;13.61;63.31;99973.33;232744;214;138065;-58
2023/10/04 22:39:07;;;;;;;15.20;7.80;;;;;;;13.56;63.51;99971.70;232830;214;150491;-61
2023/10/04 22:44:15;;;;;;;13.70;7.00;;;;;;;13.51;63.64;99974.63;233018;215;139044;-62
2023/10/04 22:49:19;;;;;;;12.00;7.40;;;;;;;13.48;63.80;99971.58;232965;214;138363;-61
2023/10/04 22:54:23;;;;;;;13.20;7.50;;;;;;;13.47;64.00;99971.09;232901;214;149415;-60
2023/10/04 22:59:27;;;;;;;11.70;7.10;;;;;;;13.45;64.07;99973.20;232935;214;139550;-62
2023/10/04 23:04:31;;;;;;;13.40;7.80;;;;;;;13.42;64.21;99971.76;232923;215;137811;-60
2023/10/04 23:09:37;;;;;;;11.90;6.90;;;;;;;13.40;64.27;99971.34;232911;214;149328;-61
2023/10/04 23:14:40;;;;;;;13.30;7.00;;;;;;;13.39;64.39;99971.43;232729;214;139859;-60
2023/10/04 23:19:48;;;;;;;13.60;7.40;;;;;;;13.42;64.54;99964.98;232750;214;140098;-59
2023/10/04 23:24:54;;;;;;;15.50;7.60;;;;;;;13.48;64.42;99960.73;232738;214;149939;-59
2023/10/04 23:29:58;;;;;;;17.80;8.10;;;;;;;13.49;64.42;99953.70;232811;214;138854;-61
2023/10/04 23:35:09;;;;;;;15.30;8.30;;;;;;;13.49;64.37;99947.67;232769;214;137173;-58
2023/10/04 23:40:18;;;;;;;19.00;7.40;;;;;;;13.49;64.37;99939.84;232847;214;149991;-60